sensor_id;sensor_type;location;lat;lon;timestamp;P1;durP1;ratioP1;P2;durP2;ratioP2
36291;SDS011;22327;51.208;6.418;2023-12-14T00:00:46;51.95;;;21.58;;
36291;SDS011;22327;51.208;6.418;2023-12-14T00:03:47;48.97;;;20.35;;
36291;SDS011;22327;51.208;6.418;2023-12-14T00:06:48;43.40;;;18.45;;
36291;SDS011;22327;51.208;6.418;2023-12-14T00:09:48;43.42;;;19.33;;
36291;SDS011;22327;51.208;6.418;2023-12-14T00:12:49;37.33;;;17.52;;
36291;SDS011;22327;51.208;6.418;2023-12-14T00:15:50;42.40;;;18.60;;
36291;SDS011;22327;51.208;6.418;2023-12-14T00:18:52;41.33;;;18.20;;
36291;SDS011;22327;51.208;6.418;2023-12-14T00:21:52;39.78;;;17.02;;
36291;SDS011;22327;51.208;6.418;2023-12-14T00:24:53;25.50;;;11.50;;
36291;SDS011;22327;51.208;6.418;2023-12-14T00:27:53;29.63;;;12.90;;
36291;SDS011;22327;51.208;6.418;2023-12-14T00:30:54;26.95;;;11.48;;
36291;SDS011;22327;51.208;6.418;2023-12-14T00:33:54;26.40;;;11.40;;
36291;SDS011;22327;51.208;6.418;2023-12-14T00:36:55;24.80;;;11.40;;
36291;SDS011;22327;51.208;6.418;2023-12-14T00:39:55;23.65;;;11.18;;
36291;SDS011;22327;51.208;6.418;2023-12-14T00:42:56;20.35;;;10.52;;
36291;SDS011;22327;51.208;6.418;2023-12-14T00:45:56;25.63;;;10.52;;
36291;SDS011;22327;51.208;6.418;2023-12-14T00:48:57;23.42;;;10.75;;
36291;SDS011;22327;51.208;6.418;2023-12-14T00:51:57;21.33;;;9.60;;
36291;SDS011;22327;51.208;6.418;2023-12-14T00:54:58;17.60;;;7.88;;
36291;SDS011;22327;51.208;6.418;2023-12-14T00:57:59;15.15;;;7.10;;
36291;SDS011;22327;51.208;6.418;2023-12-14T01:00:59;17.00;;;6.95;;
36291;SDS011;22327;51.208;6.418;2023-12-14T01:04:00;19.52;;;8.50;;
36291;SDS011;22327;51.208;6.418;2023-12-14T01:07:00;28.58;;;9.43;;
36291;SDS011;22327;51.208;6.418;2023-12-14T01:10:01;26.70;;;9.02;;
36291;SDS011;22327;51.208;6.418;2023-12-14T01:13:02;29.23;;;10.15;;
36291;SDS011;22327;51.208;6.418;2023-12-14T01:16:02;34.95;;;10.73;;
36291;SDS011;22327;51.208;6.418;2023-12-14T01:19:03;27.83;;;10.38;;
36291;SDS011;22327;51.208;6.418;2023-12-14T01:22:05;29.77;;;10.32;;
36291;SDS011;22327;51.208;6.418;2023-12-14T01:25:06;28.98;;;10.07;;
36291;SDS011;22327;51.208;6.418;2023-12-14T01:28:06;32.22;;;11.63;;
36291;SDS011;22327;51.208;6.418;2023-12-14T01:31:08;32.45;;;10.30;;
36291;SDS011;22327;51.208;6.418;2023-12-14T01:34:08;35.38;;;11.23;;
36291;SDS011;22327;51.208;6.418;2023-12-14T01:37:11;50.08;;;13.18;;
36291;SDS011;22327;51.208;6.418;2023-12-14T01:40:12;53.65;;;13.98;;
36291;SDS011;22327;51.208;6.418;2023-12-14T01:43:13;42.72;;;12.82;;
36291;SDS011;22327;51.208;6.418;2023-12-14T01:46:13;45.08;;;12.88;;
36291;SDS011;22327;51.208;6.418;2023-12-14T01:49:15;66.95;;;14.65;;
36291;SDS011;22327;51.208;6.418;2023-12-14T01:52:15;54.08;;;14.38;;
36291;SDS011;22327;51.208;6.418;2023-12-14T01:55:16;66.38;;;15.40;;
36291;SDS011;22327;51.208;6.418;2023-12-14T01:58:17;45.55;;;12.90;;
36291;SDS011;22327;51.208;6.418;2023-12-14T02:01:22;48.38;;;13.70;;
36291;SDS011;22327;51.208;6.418;2023-12-14T02:04:43;39.95;;;12.50;;
36291;SDS011;22327;51.208;6.418;2023-12-14T02:07:44;43.80;;;13.75;;
36291;SDS011;22327;51.208;6.418;2023-12-14T02:10:44;60.75;;;16.60;;
36291;SDS011;22327;51.208;6.418;2023-12-14T02:13:45;65.45;;;17.70;;
36291;SDS011;22327;51.208;6.418;2023-12-14T02:16:45;85.78;;;19.40;;
36291;SDS011;22327;51.208;6.418;2023-12-14T02:19:46;50.20;;;16.85;;
36291;SDS011;22327;51.208;6.418;2023-12-14T02:25:53;54.65;;;15.88;;
36291;SDS011;22327;51.208;6.418;2023-12-14T02:28:54;41.15;;;14.32;;
36291;SDS011;22327;51.208;6.418;2023-12-14T02:31:54;48.47;;;16.30;;
36291;SDS011;22327;51.208;6.418;2023-12-14T02:34:55;58.58;;;17.17;;
36291;SDS011;22327;51.208;6.418;2023-12-14T02:37:55;54.17;;;15.63;;
36291;SDS011;22327;51.208;6.418;2023-12-14T02:40:56;39.17;;;14.48;;
36291;SDS011;22327;51.208;6.418;2023-12-14T02:43:56;48.08;;;15.98;;
36291;SDS011;22327;51.208;6.418;2023-12-14T02:46:57;62.85;;;18.92;;
36291;SDS011;22327;51.208;6.418;2023-12-14T02:49:57;68.50;;;18.67;;
36291;SDS011;22327;51.208;6.418;2023-12-14T02:52:58;70.55;;;20.73;;
36291;SDS011;22327;51.208;6.418;2023-12-14T02:56:01;50.00;;;14.57;;
36291;SDS011;22327;51.208;6.418;2023-12-14T02:59:02;49.13;;;15.10;;
36291;SDS011;22327;51.208;6.418;2023-12-14T03:02:02;62.03;;;17.05;;
36291;SDS011;22327;51.208;6.418;2023-12-14T03:05:03;62.33;;;17.40;;
36291;SDS011;22327;51.208;6.418;2023-12-14T03:08:04;58.38;;;17.65;;
36291;SDS011;22327;51.208;6.418;2023-12-14T03:11:04;66.47;;;17.92;;
36291;SDS011;22327;51.208;6.418;2023-12-14T03:14:05;53.00;;;17.90;;
36291;SDS011;22327;51.208;6.418;2023-12-14T03:17:06;59.28;;;18.60;;
36291;SDS011;22327;51.208;6.418;2023-12-14T03:20:12;77.95;;;20.90;;
36291;SDS011;22327;51.208;6.418;2023-12-14T03:23:14;83.30;;;19.80;;
36291;SDS011;22327;51.208;6.418;2023-12-14T03:26:14;92.38;;;21.73;;
36291;SDS011;22327;51.208;6.418;2023-12-14T03:29:16;126.03;;;22.52;;
36291;SDS011;22327;51.208;6.418;2023-12-14T03:32:16;74.15;;;19.35;;
36291;SDS011;22327;51.208;6.418;2023-12-14T03:35:17;67.38;;;20.17;;
36291;SDS011;22327;51.208;6.418;2023-12-14T03:38:17;59.85;;;19.33;;
36291;SDS011;22327;51.208;6.418;2023-12-14T03:41:18;61.20;;;18.38;;
36291;SDS011;22327;51.208;6.418;2023-12-14T03:44:18;91.07;;;23.33;;
36291;SDS011;22327;51.208;6.418;2023-12-14T03:47:19;76.03;;;22.17;;
36291;SDS011;22327;51.208;6.418;2023-12-14T03:50:19;62.53;;;19.73;;
36291;SDS011;22327;51.208;6.418;2023-12-14T03:53:20;49.47;;;18.10;;
36291;SDS011;22327;51.208;6.418;2023-12-14T03:56:21;51.55;;;18.55;;
36291;SDS011;22327;51.208;6.418;2023-12-14T03:59:21;54.47;;;18.05;;
36291;SDS011;22327;51.208;6.418;2023-12-14T04:02:22;52.67;;;18.63;;
36291;SDS011;22327;51.208;6.418;2023-12-14T04:05:22;54.10;;;18.27;;
36291;SDS011;22327;51.208;6.418;2023-12-14T04:08:23;54.65;;;19.40;;
36291;SDS011;22327;51.208;6.418;2023-12-14T04:11:23;46.35;;;17.73;;
36291;SDS011;22327;51.208;6.418;2023-12-14T04:14:24;48.47;;;16.95;;
36291;SDS011;22327;51.208;6.418;2023-12-14T04:17:24;42.92;;;16.27;;
36291;SDS011;22327;51.208;6.418;2023-12-14T04:20:25;47.80;;;17.35;;
36291;SDS011;22327;51.208;6.418;2023-12-14T04:23:26;44.95;;;16.17;;
36291;SDS011;22327;51.208;6.418;2023-12-14T04:26:27;47.45;;;16.92;;
36291;SDS011;22327;51.208;6.418;2023-12-14T04:29:28;44.40;;;15.73;;
36291;SDS011;22327;51.208;6.418;2023-12-14T04:32:28;44.80;;;15.43;;
36291;SDS011;22327;51.208;6.418;2023-12-14T04:35:29;42.95;;;15.10;;
36291;SDS011;22327;51.208;6.418;2023-12-14T04:38:31;38.40;;;15.00;;
36291;SDS011;22327;51.208;6.418;2023-12-14T04:41:31;37.10;;;14.18;;
36291;SDS011;22327;51.208;6.418;2023-12-14T04:44:32;37.53;;;15.25;;
36291;SDS011;22327;51.208;6.418;2023-12-14T04:47:32;36.42;;;13.95;;
36291;SDS011;22327;51.208;6.418;2023-12-14T04:50:33;41.25;;;15.35;;
36291;SDS011;22327;51.208;6.418;2023-12-14T04:53:33;39.72;;;14.90;;
36291;SDS011;22327;51.208;6.418;2023-12-14T04:56:34;37.13;;;14.02;;
36291;SDS011;22327;51.208;6.418;2023-12-14T04:59:34;34.10;;;14.60;;
36291;SDS011;22327;51.208;6.418;2023-12-14T05:02:35;39.22;;;14.60;;
36291;SDS011;22327;51.208;6.418;2023-12-14T05:05:35;37.70;;;14.05;;
36291;SDS011;22327;51.208;6.418;2023-12-14T05:08:36;32.53;;;14.43;;
36291;SDS011;22327;51.208;6.418;2023-12-14T05:11:36;33.47;;;14.88;;
36291;SDS011;22327;51.208;6.418;2023-12-14T05:14:39;34.95;;;14.23;;
36291;SDS011;22327;51.208;6.418;2023-12-14T05:17:40;42.83;;;15.60;;
36291;SDS011;22327;51.208;6.418;2023-12-14T05:20:41;42.08;;;16.30;;
36291;SDS011;22327;51.208;6.418;2023-12-14T05:23:41;41.17;;;16.08;;
36291;SDS011;22327;51.208;6.418;2023-12-14T05:26:42;34.28;;;13.43;;
36291;SDS011;22327;51.208;6.418;2023-12-14T05:29:42;33.58;;;14.13;;
36291;SDS011;22327;51.208;6.418;2023-12-14T05:32:43;35.55;;;15.02;;
36291;SDS011;22327;51.208;6.418;2023-12-14T05:35:44;35.90;;;14.55;;
36291;SDS011;22327;51.208;6.418;2023-12-14T05:38:44;33.30;;;15.13;;
36291;SDS011;22327;51.208;6.418;2023-12-14T05:41:45;32.25;;;14.25;;
36291;SDS011;22327;51.208;6.418;2023-12-14T05:44:45;37.72;;;14.45;;
36291;SDS011;22327;51.208;6.418;2023-12-14T05:47:46;37.45;;;15.63;;
36291;SDS011;22327;51.208;6.418;2023-12-14T05:50:47;40.42;;;15.48;;
36291;SDS011;22327;51.208;6.418;2023-12-14T05:53:47;38.08;;;15.52;;
36291;SDS011;22327;51.208;6.418;2023-12-14T05:56:48;41.60;;;16.17;;
36291;SDS011;22327;51.208;6.418;2023-12-14T05:59:50;47.55;;;16.63;;
36291;SDS011;22327;51.208;6.418;2023-12-14T06:02:51;44.63;;;16.70;;
36291;SDS011;22327;51.208;6.418;2023-12-14T06:05:52;47.70;;;17.73;;
36291;SDS011;22327;51.208;6.418;2023-12-14T06:08:52;61.15;;;18.65;;
36291;SDS011;22327;51.208;6.418;2023-12-14T06:11:53;55.83;;;16.90;;
36291;SDS011;22327;51.208;6.418;2023-12-14T06:14:53;50.05;;;18.92;;
36291;SDS011;22327;51.208;6.418;2023-12-14T06:17:53;54.40;;;18.30;;
36291;SDS011;22327;51.208;6.418;2023-12-14T06:20:54;61.55;;;18.40;;
36291;SDS011;22327;51.208;6.418;2023-12-14T06:23:55;66.72;;;19.33;;
36291;SDS011;22327;51.208;6.418;2023-12-14T06:26:57;40.75;;;14.80;;
36291;SDS011;22327;51.208;6.418;2023-12-14T06:29:57;48.60;;;16.75;;
36291;SDS011;22327;51.208;6.418;2023-12-14T06:32:58;52.22;;;19.30;;
36291;SDS011;22327;51.208;6.418;2023-12-14T06:36:01;40.80;;;16.52;;
36291;SDS011;22327;51.208;6.418;2023-12-14T06:39:04;32.20;;;14.05;;
36291;SDS011;22327;51.208;6.418;2023-12-14T06:42:04;35.30;;;15.30;;
36291;SDS011;22327;51.208;6.418;2023-12-14T06:45:05;35.25;;;15.57;;
36291;SDS011;22327;51.208;6.418;2023-12-14T06:48:06;35.40;;;16.60;;
36291;SDS011;22327;51.208;6.418;2023-12-14T06:51:07;34.47;;;15.90;;
36291;SDS011;22327;51.208;6.418;2023-12-14T06:54:07;36.05;;;15.30;;
36291;SDS011;22327;51.208;6.418;2023-12-14T06:57:08;32.60;;;15.00;;
36291;SDS011;22327;51.208;6.418;2023-12-14T07:00:09;33.22;;;15.43;;
36291;SDS011;22327;51.208;6.418;2023-12-14T07:03:10;30.52;;;14.43;;
36291;SDS011;22327;51.208;6.418;2023-12-14T07:06:11;27.85;;;13.40;;
36291;SDS011;22327;51.208;6.418;2023-12-14T07:09:15;30.30;;;14.77;;
36291;SDS011;22327;51.208;6.418;2023-12-14T07:12:15;24.92;;;14.23;;
36291;SDS011;22327;51.208;6.418;2023-12-14T07:15:16;31.48;;;15.98;;
36291;SDS011;22327;51.208;6.418;2023-12-14T07:18:16;33.17;;;16.10;;
36291;SDS011;22327;51.208;6.418;2023-12-14T07:21:17;28.45;;;15.85;;
36291;SDS011;22327;51.208;6.418;2023-12-14T07:24:17;30.50;;;15.00;;
36291;SDS011;22327;51.208;6.418;2023-12-14T07:27:18;31.95;;;15.15;;
36291;SDS011;22327;51.208;6.418;2023-12-14T07:30:18;28.35;;;14.88;;
36291;SDS011;22327;51.208;6.418;2023-12-14T07:33:19;27.58;;;14.15;;
36291;SDS011;22327;51.208;6.418;2023-12-14T07:36:19;29.10;;;14.35;;
36291;SDS011;22327;51.208;6.418;2023-12-14T07:39:22;27.15;;;14.38;;
36291;SDS011;22327;51.208;6.418;2023-12-14T07:42:23;25.50;;;14.10;;
36291;SDS011;22327;51.208;6.418;2023-12-14T07:45:23;26.00;;;14.98;;
36291;SDS011;22327;51.208;6.418;2023-12-14T07:48:24;29.38;;;14.43;;
36291;SDS011;22327;51.208;6.418;2023-12-14T07:51:24;28.25;;;14.30;;
36291;SDS011;22327;51.208;6.418;2023-12-14T07:54:25;25.63;;;13.73;;
36291;SDS011;22327;51.208;6.418;2023-12-14T07:57:26;25.40;;;14.80;;
36291;SDS011;22327;51.208;6.418;2023-12-14T08:00:27;27.60;;;14.95;;
36291;SDS011;22327;51.208;6.418;2023-12-14T08:03:27;27.80;;;15.82;;
36291;SDS011;22327;51.208;6.418;2023-12-14T08:06:28;26.10;;;15.23;;
36291;SDS011;22327;51.208;6.418;2023-12-14T08:09:28;25.58;;;14.23;;
36291;SDS011;22327;51.208;6.418;2023-12-14T08:12:29;27.23;;;15.93;;
36291;SDS011;22327;51.208;6.418;2023-12-14T08:15:29;28.40;;;15.32;;
36291;SDS011;22327;51.208;6.418;2023-12-14T08:18:30;23.50;;;13.90;;
36291;SDS011;22327;51.208;6.418;2023-12-14T08:21:30;25.95;;;14.50;;
36291;SDS011;22327;51.208;6.418;2023-12-14T08:24:31;25.55;;;14.10;;
36291;SDS011;22327;51.208;6.418;2023-12-14T08:27:31;23.75;;;13.82;;
36291;SDS011;22327;51.208;6.418;2023-12-14T08:30:32;24.20;;;14.55;;
36291;SDS011;22327;51.208;6.418;2023-12-14T08:33:32;20.20;;;13.30;;
36291;SDS011;22327;51.208;6.418;2023-12-14T08:36:33;23.33;;;13.40;;
36291;SDS011;22327;51.208;6.418;2023-12-14T08:39:33;22.70;;;14.38;;
36291;SDS011;22327;51.208;6.418;2023-12-14T08:42:34;22.75;;;13.40;;
36291;SDS011;22327;51.208;6.418;2023-12-14T08:45:35;22.65;;;13.13;;
36291;SDS011;22327;51.208;6.418;2023-12-14T08:48:35;23.92;;;13.15;;
36291;SDS011;22327;51.208;6.418;2023-12-14T08:51:36;21.92;;;12.75;;
36291;SDS011;22327;51.208;6.418;2023-12-14T08:54:38;19.70;;;12.30;;
36291;SDS011;22327;51.208;6.418;2023-12-14T08:57:38;20.90;;;13.52;;
36291;SDS011;22327;51.208;6.418;2023-12-14T09:00:39;20.05;;;12.02;;
36291;SDS011;22327;51.208;6.418;2023-12-14T09:03:40;19.85;;;12.10;;
36291;SDS011;22327;51.208;6.418;2023-12-14T09:06:40;18.85;;;12.15;;
36291;SDS011;22327;51.208;6.418;2023-12-14T09:09:44;17.63;;;11.40;;
36291;SDS011;22327;51.208;6.418;2023-12-14T09:12:45;19.48;;;13.02;;
36291;SDS011;22327;51.208;6.418;2023-12-14T09:15:45;19.38;;;11.98;;
36291;SDS011;22327;51.208;6.418;2023-12-14T09:18:46;20.17;;;12.45;;
36291;SDS011;22327;51.208;6.418;2023-12-14T09:21:47;20.40;;;12.85;;
36291;SDS011;22327;51.208;6.418;2023-12-14T09:24:47;18.63;;;12.43;;
36291;SDS011;22327;51.208;6.418;2023-12-14T09:27:48;19.15;;;12.15;;
36291;SDS011;22327;51.208;6.418;2023-12-14T09:30:48;21.52;;;13.15;;
36291;SDS011;22327;51.208;6.418;2023-12-14T09:33:49;19.88;;;12.82;;
36291;SDS011;22327;51.208;6.418;2023-12-14T09:36:49;20.33;;;12.93;;
36291;SDS011;22327;51.208;6.418;2023-12-14T09:39:50;19.83;;;13.23;;
36291;SDS011;22327;51.208;6.418;2023-12-14T09:42:51;21.45;;;14.15;;
36291;SDS011;22327;51.208;6.418;2023-12-14T09:45:52;19.92;;;12.77;;
36291;SDS011;22327;51.208;6.418;2023-12-14T09:48:54;19.67;;;12.77;;
36291;SDS011;22327;51.208;6.418;2023-12-14T09:51:56;19.02;;;12.18;;
36291;SDS011;22327;51.208;6.418;2023-12-14T09:54:57;19.17;;;11.82;;
36291;SDS011;22327;51.208;6.418;2023-12-14T09:57:57;19.08;;;13.15;;
36291;SDS011;22327;51.208;6.418;2023-12-14T10:00:58;17.95;;;11.93;;
36291;SDS011;22327;51.208;6.418;2023-12-14T10:04:13;21.08;;;11.77;;
36291;SDS011;22327;51.208;6.418;2023-12-14T10:07:15;18.83;;;12.90;;
36291;SDS011;22327;51.208;6.418;2023-12-14T10:10:16;19.10;;;12.60;;
36291;SDS011;22327;51.208;6.418;2023-12-14T10:13:17;19.63;;;12.85;;
36291;SDS011;22327;51.208;6.418;2023-12-14T10:16:28;19.92;;;12.52;;
36291;SDS011;22327;51.208;6.418;2023-12-14T10:19:30;21.33;;;12.85;;
36291;SDS011;22327;51.208;6.418;2023-12-14T10:22:30;20.52;;;12.50;;
36291;SDS011;22327;51.208;6.418;2023-12-14T10:25:32;19.40;;;12.70;;
36291;SDS011;22327;51.208;6.418;2023-12-14T10:28:33;20.23;;;12.60;;
36291;SDS011;22327;51.208;6.418;2023-12-14T10:31:33;19.45;;;12.05;;
36291;SDS011;22327;51.208;6.418;2023-12-14T10:34:40;18.15;;;12.30;;
36291;SDS011;22327;51.208;6.418;2023-12-14T10:37:41;17.88;;;11.15;;
36291;SDS011;22327;51.208;6.418;2023-12-14T10:40:42;18.63;;;12.52;;
36291;SDS011;22327;51.208;6.418;2023-12-14T10:43:44;20.75;;;13.20;;
36291;SDS011;22327;51.208;6.418;2023-12-14T10:46:48;17.75;;;11.68;;
36291;SDS011;22327;51.208;6.418;2023-12-14T10:49:50;17.15;;;11.23;;
36291;SDS011;22327;51.208;6.418;2023-12-14T10:52:50;19.48;;;12.40;;
36291;SDS011;22327;51.208;6.418;2023-12-14T10:55:51;17.55;;;11.48;;
36291;SDS011;22327;51.208;6.418;2023-12-14T10:58:55;19.50;;;12.07;;
36291;SDS011;22327;51.208;6.418;2023-12-14T11:01:57;20.00;;;11.77;;
36291;SDS011;22327;51.208;6.418;2023-12-14T11:05:00;18.20;;;10.73;;
36291;SDS011;22327;51.208;6.418;2023-12-14T11:08:05;19.40;;;11.73;;
36291;SDS011;22327;51.208;6.418;2023-12-14T11:11:12;18.40;;;10.30;;
36291;SDS011;22327;51.208;6.418;2023-12-14T11:14:20;15.90;;;10.52;;
36291;SDS011;22327;51.208;6.418;2023-12-14T11:17:21;14.45;;;9.82;;
36291;SDS011;22327;51.208;6.418;2023-12-14T11:20:26;14.73;;;9.88;;
36291;SDS011;22327;51.208;6.418;2023-12-14T11:23:28;14.73;;;9.40;;
36291;SDS011;22327;51.208;6.418;2023-12-14T11:26:33;14.68;;;9.57;;
36291;SDS011;22327;51.208;6.418;2023-12-14T11:29:37;15.02;;;9.18;;
36291;SDS011;22327;51.208;6.418;2023-12-14T11:32:39;13.68;;;9.52;;
36291;SDS011;22327;51.208;6.418;2023-12-14T11:35:39;13.55;;;9.20;;
36291;SDS011;22327;51.208;6.418;2023-12-14T11:38:40;13.35;;;8.48;;
36291;SDS011;22327;51.208;6.418;2023-12-14T11:41:41;14.07;;;8.88;;
36291;SDS011;22327;51.208;6.418;2023-12-14T11:44:42;11.82;;;7.75;;
36291;SDS011;22327;51.208;6.418;2023-12-14T11:47:42;11.80;;;7.70;;
36291;SDS011;22327;51.208;6.418;2023-12-14T11:50:43;13.32;;;8.23;;
36291;SDS011;22327;51.208;6.418;2023-12-14T11:53:47;11.88;;;7.60;;
36291;SDS011;22327;51.208;6.418;2023-12-14T11:56:50;12.45;;;7.97;;
36291;SDS011;22327;51.208;6.418;2023-12-14T11:59:51;13.40;;;7.85;;
36291;SDS011;22327;51.208;6.418;2023-12-14T12:02:52;12.80;;;8.48;;
36291;SDS011;22327;51.208;6.418;2023-12-14T12:06:07;10.77;;;7.40;;
36291;SDS011;22327;51.208;6.418;2023-12-14T12:09:07;12.15;;;7.15;;
36291;SDS011;22327;51.208;6.418;2023-12-14T12:12:11;8.97;;;5.73;;
36291;SDS011;22327;51.208;6.418;2023-12-14T12:15:12;12.40;;;7.07;;
36291;SDS011;22327;51.208;6.418;2023-12-14T12:18:14;11.05;;;7.40;;
36291;SDS011;22327;51.208;6.418;2023-12-14T12:21:16;11.77;;;6.83;;
36291;SDS011;22327;51.208;6.418;2023-12-14T12:24:17;10.30;;;6.53;;
36291;SDS011;22327;51.208;6.418;2023-12-14T12:27:17;10.98;;;6.68;;
36291;SDS011;22327;51.208;6.418;2023-12-14T12:30:18;12.63;;;7.10;;
36291;SDS011;22327;51.208;6.418;2023-12-14T12:33:19;9.93;;;6.38;;
36291;SDS011;22327;51.208;6.418;2023-12-14T12:36:20;11.00;;;6.25;;
36291;SDS011;22327;51.208;6.418;2023-12-14T12:39:21;10.45;;;6.35;;
36291;SDS011;22327;51.208;6.418;2023-12-14T12:42:22;9.95;;;6.20;;
36291;SDS011;22327;51.208;6.418;2023-12-14T12:45:22;11.55;;;7.03;;
36291;SDS011;22327;51.208;6.418;2023-12-14T12:48:26;8.80;;;5.82;;
36291;SDS011;22327;51.208;6.418;2023-12-14T12:51:27;12.45;;;6.75;;
36291;SDS011;22327;51.208;6.418;2023-12-14T12:54:28;9.95;;;6.68;;
36291;SDS011;22327;51.208;6.418;2023-12-14T12:57:30;16.42;;;7.28;;
36291;SDS011;22327;51.208;6.418;2023-12-14T13:00:31;11.23;;;6.93;;
36291;SDS011;22327;51.208;6.418;2023-12-14T13:03:31;10.77;;;6.75;;
36291;SDS011;22327;51.208;6.418;2023-12-14T13:06:32;12.52;;;7.25;;
36291;SDS011;22327;51.208;6.418;2023-12-14T13:09:32;11.15;;;7.22;;
36291;SDS011;22327;51.208;6.418;2023-12-14T13:12:33;12.05;;;6.90;;
36291;SDS011;22327;51.208;6.418;2023-12-14T13:15:33;11.82;;;7.35;;
36291;SDS011;22327;51.208;6.418;2023-12-14T13:18:35;11.15;;;7.40;;
36291;SDS011;22327;51.208;6.418;2023-12-14T13:21:35;10.70;;;7.35;;
36291;SDS011;22327;51.208;6.418;2023-12-14T13:24:36;10.48;;;5.82;;
36291;SDS011;22327;51.208;6.418;2023-12-14T13:27:37;10.70;;;6.70;;
36291;SDS011;22327;51.208;6.418;2023-12-14T13:30:38;9.88;;;6.68;;
36291;SDS011;22327;51.208;6.418;2023-12-14T13:33:39;10.43;;;6.30;;
36291;SDS011;22327;51.208;6.418;2023-12-14T13:36:39;10.35;;;6.63;;
36291;SDS011;22327;51.208;6.418;2023-12-14T13:39:39;10.52;;;6.72;;
36291;SDS011;22327;51.208;6.418;2023-12-14T13:42:40;14.75;;;7.32;;
36291;SDS011;22327;51.208;6.418;2023-12-14T13:45:41;10.95;;;6.75;;
36291;SDS011;22327;51.208;6.418;2023-12-14T13:48:44;11.13;;;6.63;;
36291;SDS011;22327;51.208;6.418;2023-12-14T13:51:45;9.63;;;6.88;;
36291;SDS011;22327;51.208;6.418;2023-12-14T13:54:45;10.80;;;7.00;;
36291;SDS011;22327;51.208;6.418;2023-12-14T13:57:46;10.43;;;7.20;;
36291;SDS011;22327;51.208;6.418;2023-12-14T14:00:47;10.57;;;6.53;;
36291;SDS011;22327;51.208;6.418;2023-12-14T14:03:48;9.88;;;6.43;;
36291;SDS011;22327;51.208;6.418;2023-12-14T14:06:48;10.43;;;6.43;;
36291;SDS011;22327;51.208;6.418;2023-12-14T14:09:49;11.18;;;7.13;;
36291;SDS011;22327;51.208;6.418;2023-12-14T14:12:50;12.38;;;7.30;;
36291;SDS011;22327;51.208;6.418;2023-12-14T14:15:51;13.70;;;8.20;;
36291;SDS011;22327;51.208;6.418;2023-12-14T14:18:52;11.15;;;7.40;;
36291;SDS011;22327;51.208;6.418;2023-12-14T14:21:52;12.02;;;7.68;;
36291;SDS011;22327;51.208;6.418;2023-12-14T14:24:53;11.48;;;7.07;;
36291;SDS011;22327;51.208;6.418;2023-12-14T14:27:53;10.38;;;6.60;;
36291;SDS011;22327;51.208;6.418;2023-12-14T14:30:54;10.45;;;7.18;;
36291;SDS011;22327;51.208;6.418;2023-12-14T14:33:55;13.77;;;8.02;;
36291;SDS011;22327;51.208;6.418;2023-12-14T14:36:56;12.50;;;7.93;;
36291;SDS011;22327;51.208;6.418;2023-12-14T14:39:57;14.23;;;7.80;;
36291;SDS011;22327;51.208;6.418;2023-12-14T14:42:58;10.93;;;7.55;;
36291;SDS011;22327;51.208;6.418;2023-12-14T14:45:58;12.00;;;8.35;;
36291;SDS011;22327;51.208;6.418;2023-12-14T14:49:00;12.07;;;7.78;;
36291;SDS011;22327;51.208;6.418;2023-12-14T14:52:02;13.38;;;8.32;;
36291;SDS011;22327;51.208;6.418;2023-12-14T14:55:02;13.98;;;8.18;;
36291;SDS011;22327;51.208;6.418;2023-12-14T14:58:04;12.48;;;8.55;;
36291;SDS011;22327;51.208;6.418;2023-12-14T15:01:04;12.43;;;8.32;;
36291;SDS011;22327;51.208;6.418;2023-12-14T15:04:05;13.35;;;9.10;;
36291;SDS011;22327;51.208;6.418;2023-12-14T15:07:06;15.77;;;8.73;;
36291;SDS011;22327;51.208;6.418;2023-12-14T15:10:06;14.88;;;9.43;;
36291;SDS011;22327;51.208;6.418;2023-12-14T15:13:07;15.60;;;8.35;;
36291;SDS011;22327;51.208;6.418;2023-12-14T15:16:08;15.88;;;8.85;;
36291;SDS011;22327;51.208;6.418;2023-12-14T15:19:08;13.93;;;8.68;;
36291;SDS011;22327;51.208;6.418;2023-12-14T15:22:11;12.73;;;8.93;;
36291;SDS011;22327;51.208;6.418;2023-12-14T15:25:11;12.77;;;8.15;;
36291;SDS011;22327;51.208;6.418;2023-12-14T15:28:15;11.88;;;8.25;;
36291;SDS011;22327;51.208;6.418;2023-12-14T15:31:15;10.35;;;7.55;;
36291;SDS011;22327;51.208;6.418;2023-12-14T15:34:16;13.60;;;8.63;;
36291;SDS011;22327;51.208;6.418;2023-12-14T15:37:18;14.93;;;10.15;;
36291;SDS011;22327;51.208;6.418;2023-12-14T15:40:18;15.27;;;10.10;;
36291;SDS011;22327;51.208;6.418;2023-12-14T15:43:19;14.00;;;10.18;;
36291;SDS011;22327;51.208;6.418;2023-12-14T15:46:19;13.18;;;10.18;;
36291;SDS011;22327;51.208;6.418;2023-12-14T15:49:21;13.25;;;9.13;;
36291;SDS011;22327;51.208;6.418;2023-12-14T15:52:21;15.43;;;9.85;;
36291;SDS011;22327;51.208;6.418;2023-12-14T15:55:22;20.80;;;16.65;;
36291;SDS011;22327;51.208;6.418;2023-12-14T15:58:24;15.90;;;10.63;;
36291;SDS011;22327;51.208;6.418;2023-12-14T16:01:25;17.85;;;12.25;;
36291;SDS011;22327;51.208;6.418;2023-12-14T16:04:26;14.88;;;10.23;;
36291;SDS011;22327;51.208;6.418;2023-12-14T16:07:26;14.50;;;9.57;;
36291;SDS011;22327;51.208;6.418;2023-12-14T16:10:27;13.65;;;9.48;;
36291;SDS011;22327;51.208;6.418;2023-12-14T16:13:28;13.45;;;9.20;;
36291;SDS011;22327;51.208;6.418;2023-12-14T16:16:29;19.13;;;12.65;;
36291;SDS011;22327;51.208;6.418;2023-12-14T16:19:29;14.98;;;9.65;;
36291;SDS011;22327;51.208;6.418;2023-12-14T16:22:30;14.23;;;9.20;;
36291;SDS011;22327;51.208;6.418;2023-12-14T16:25:31;14.88;;;10.02;;
36291;SDS011;22327;51.208;6.418;2023-12-14T16:28:31;17.40;;;10.52;;
36291;SDS011;22327;51.208;6.418;2023-12-14T16:31:32;16.20;;;10.23;;
36291;SDS011;22327;51.208;6.418;2023-12-14T16:34:33;15.57;;;9.23;;
36291;SDS011;22327;51.208;6.418;2023-12-14T16:37:34;16.10;;;9.75;;
36291;SDS011;22327;51.208;6.418;2023-12-14T16:40:35;17.98;;;10.77;;
36291;SDS011;22327;51.208;6.418;2023-12-14T16:43:35;18.77;;;10.45;;
36291;SDS011;22327;51.208;6.418;2023-12-14T16:46:36;16.92;;;10.10;;
36291;SDS011;22327;51.208;6.418;2023-12-14T16:49:36;16.48;;;10.50;;
36291;SDS011;22327;51.208;6.418;2023-12-14T16:52:37;19.00;;;11.10;;
36291;SDS011;22327;51.208;6.418;2023-12-14T16:55:37;21.48;;;12.98;;
36291;SDS011;22327;51.208;6.418;2023-12-14T16:58:38;18.30;;;12.55;;
36291;SDS011;22327;51.208;6.418;2023-12-14T17:01:38;21.33;;;12.73;;
36291;SDS011;22327;51.208;6.418;2023-12-14T17:04:39;17.95;;;10.90;;
36291;SDS011;22327;51.208;6.418;2023-12-14T17:07:40;19.92;;;11.27;;
36291;SDS011;22327;51.208;6.418;2023-12-14T17:10:41;17.10;;;10.70;;
36291;SDS011;22327;51.208;6.418;2023-12-14T17:13:41;18.35;;;11.02;;
36291;SDS011;22327;51.208;6.418;2023-12-14T17:16:42;19.95;;;10.57;;
36291;SDS011;22327;51.208;6.418;2023-12-14T17:19:45;22.92;;;10.82;;
36291;SDS011;22327;51.208;6.418;2023-12-14T17:22:45;21.40;;;11.48;;
36291;SDS011;22327;51.208;6.418;2023-12-14T17:25:46;20.23;;;11.48;;
36291;SDS011;22327;51.208;6.418;2023-12-14T17:28:49;21.73;;;12.10;;
36291;SDS011;22327;51.208;6.418;2023-12-14T17:31:51;19.42;;;11.85;;
36291;SDS011;22327;51.208;6.418;2023-12-14T17:34:51;21.63;;;13.27;;
36291;SDS011;22327;51.208;6.418;2023-12-14T17:37:52;23.63;;;13.60;;
36291;SDS011;22327;51.208;6.418;2023-12-14T17:40:52;25.08;;;13.00;;
36291;SDS011;22327;51.208;6.418;2023-12-14T17:43:53;21.08;;;12.23;;
36291;SDS011;22327;51.208;6.418;2023-12-14T17:46:53;21.38;;;12.13;;